Time;durP1;ratioP1;P1;durP2;ratioP2;P2;SDS_P1;SDS_P2;PMS_P1;PMS_P2;Temp;Humidity;BMP_temperature;BMP_pressure;BME280_temperature;BME280_humidity;BME280_pressure;Samples;Min_cycle;Max_cycle;Signal;HPM_P1;HPM_P2
2021/09/30 00:00:17;;;;;;;2.60;1.23;;;;;;;-139.48;100.00;61774.03;4998084;28;20419;-67
2021/09/30 00:03:01;;;;;;;3.58;1.30;;;;;;;-139.48;100.00;61774.03;5012545;28;20053;-67
2021/09/30 00:05:45;;;;;;;5.90;1.25;;;;;;;-139.48;100.00;61774.03;5012401;28;20056;-67
2021/09/30 00:08:29;;;;;;;3.35;1.10;;;;;;;-139.48;100.00;61774.03;5012761;28;20514;-67
2021/09/30 00:11:18;;;;;;;3.47;1.60;;;;;;;-139.48;100.00;61774.03;5013457;28;20052;-66
2021/09/30 00:14:14;;;;;;;1.85;1.02;;;;;;;-139.48;100.00;61774.03;5012457;28;20084;-67
2021/09/30 00:17:19;;;;;;;3.40;1.30;;;;;;;-139.48;100.00;61774.03;5013463;28;20040;-67
2021/09/30 00:53:10;;;;;;;3.58;1.48;;;;;;;-139.48;100.00;61774.03;5012650;28;20048;-67
2021/09/30 02:58:27;;;;;;;2.80;1.45;;;;;;;-139.48;100.00;61774.03;5013800;28;20076;-67
2021/09/30 03:01:18;;;;;;;3.45;1.30;;;;;;;-139.48;100.00;61774.03;5013844;28;20125;-66
2021/09/30 03:04:04;;;;;;;5.97;1.65;;;;;;;-139.48;100.00;61774.03;5013782;28;20084;-67
2021/09/30 03:06:48;;;;;;;3.65;1.55;;;;;;;-139.48;100.00;61774.03;4999854;28;20057;-67
2021/09/30 03:09:41;;;;;;;6.10;1.83;;;;;;;-139.48;100.00;61774.03;5013619;28;20176;-66
2021/09/30 03:12:29;;;;;;;3.90;1.50;;;;;;;-139.48;100.00;61774.03;5013740;28;20048;-67
2021/09/30 03:16:00;;;;;;;2.92;1.40;;;;;;;-139.48;100.00;61774.03;5013537;28;20084;-67
2021/09/30 03:18:29;;;;;;;1.83;1.40;;;;;;;-139.48;100.00;61774.03;5011434;28;20136;-67
2021/09/30 03:23:58;;;;;;;1.30;1.20;;;;;;;-139.48;100.00;61774.03;5013713;28;20045;-67
2021/09/30 03:26:43;;;;;;;6.35;1.90;;;;;;;-139.48;100.00;61774.03;4999370;28;20088;-67
2021/09/30 03:29:27;;;;;;;3.92;2.33;;;;;;;-139.48;100.00;61774.03;5013346;28;20049;-66
2021/09/30 03:32:12;;;;;;;6.47;2.15;;;;;;;-139.48;100.00;61774.03;4999237;28;20080;-67
2021/09/30 03:34:56;;;;;;;3.08;1.70;;;;;;;-139.48;100.00;61774.03;5013309;28;20502;-67
2021/09/30 03:37:40;;;;;;;3.25;1.75;;;;;;;-139.48;100.00;61774.03;5012899;28;20048;-67
2021/09/30 03:40:24;;;;;;;6.82;2.10;;;;;;;-139.48;100.00;61774.03;4999534;28;20131;-67
2021/09/30 03:43:08;;;;;;;3.45;1.80;;;;;;;-139.48;100.00;61774.03;5014141;28;20045;-67
2021/09/30 03:45:53;;;;;;;3.45;1.73;;;;;;;-139.48;100.00;61774.03;5012922;28;20048;-66
2021/09/30 03:48:37;;;;;;;3.15;1.80;;;;;;;-139.48;100.00;61774.03;5013065;28;20579;-67
2021/09/30 03:57:37;;;;;;;2.25;1.60;;;;;;;-139.48;100.00;61774.03;5013089;28;20137;-67
2021/09/30 04:00:21;;;;;;;5.35;1.60;;;;;;;-139.48;100.00;61774.03;5012835;28;20087;-67
2021/09/30 04:03:06;;;;;;;5.47;1.77;;;;;;;-139.48;100.00;61774.03;4999015;28;20183;-67
2021/09/30 04:05:50;;;;;;;6.47;1.55;;;;;;;-139.48;100.00;61774.03;5012684;28;20188;-67
2021/09/30 04:08:35;;;;;;;2.75;1.45;;;;;;;-139.48;100.00;61774.03;5012827;28;20048;-67
2021/09/30 04:11:19;;;;;;;2.38;1.88;;;;;;;-139.48;100.00;61774.03;5013460;28;20080;-67
2021/09/30 04:14:03;;;;;;;5.47;2.08;;;;;;;-139.48;100.00;61774.03;4998882;28;20061;-67
2021/09/30 04:16:47;;;;;;;4.90;1.75;;;;;;;-139.48;100.00;61774.03;5012420;28;20044;-67
2021/09/30 04:19:32;;;;;;;5.30;2.05;;;;;;;-139.48;100.00;61774.03;5012323;28;20064;-66
2021/09/30 04:22:16;;;;;;;3.75;1.63;;;;;;;-139.48;100.00;61774.03;4998668;28;20052;-67
2021/09/30 04:25:00;;;;;;;3.78;1.50;;;;;;;-139.48;100.00;61774.03;5042870;22;20058;-68
2021/09/30 04:27:44;;;;;;;5.05;1.70;;;;;;;-139.48;100.00;61774.03;5006863;28;20080;-71
2021/09/30 04:30:28;;;;;;;1.77;1.55;;;;;;;-139.48;100.00;61774.03;5006607;28;20100;-71
2021/09/30 04:33:12;;;;;;;3.85;1.85;;;;;;;-139.48;100.00;61774.03;4994181;28;20077;-71
2021/09/30 04:35:56;;;;;;;2.20;1.70;;;;;;;-139.48;100.00;61774.03;4993838;28;20136;-71
2021/09/30 04:38:40;;;;;;;6.00;1.98;;;;;;;-139.48;100.00;61774.03;4992853;28;20124;-71
2021/09/30 04:41:24;;;;;;;6.28;1.80;;;;;;;-139.48;100.00;61774.03;4992565;28;20077;-71
2021/09/30 04:44:07;;;;;;;2.97;1.80;;;;;;;-139.48;100.00;61774.03;4979207;28;20050;-71
2021/09/30 04:46:52;;;;;;;3.00;1.75;;;;;;;-139.48;100.00;61774.03;4995452;28;20056;-71
2021/09/30 04:49:36;;;;;;;6.72;2.00;;;;;;;-139.48;100.00;61774.03;4996963;28;20077;-70
2021/09/30 04:52:20;;;;;;;4.40;2.15;;;;;;;-139.48;100.00;61774.03;4996693;28;20049;-71
2021/09/30 04:55:05;;;;;;;2.00;1.40;;;;;;;-139.48;100.00;61774.03;4996321;28;20132;-71
2021/09/30 04:57:49;;;;;;;2.45;1.55;;;;;;;-139.48;100.00;61774.03;4996519;28;20118;-70
2021/09/30 05:00:32;;;;;;;6.82;1.60;;;;;;;-139.48;100.00;61774.03;4997476;28;20483;-71
2021/09/30 05:03:16;;;;;;;2.85;1.77;;;;;;;-139.48;100.00;61774.03;4996280;28;20419;-71
2021/09/30 05:06:00;;;;;;;3.90;1.90;;;;;;;-139.48;100.00;61774.03;4982568;28;20134;-69
2021/09/30 05:08:47;;;;;;;4.28;1.90;;;;;;;-139.48;100.00;61774.03;4997089;28;20431;-71
2021/09/30 05:11:35;;;;;;;6.22;1.83;;;;;;;-139.48;100.00;61774.03;4983125;28;20061;-71
2021/09/30 05:14:19;;;;;;;6.50;2.17;;;;;;;-139.48;100.00;61774.03;4996019;28;20053;-71
2021/09/30 05:17:03;;;;;;;5.88;2.30;;;;;;;-139.48;100.00;61774.03;4982571;28;20176;-71
2021/09/30 05:19:48;;;;;;;5.75;1.88;;;;;;;-139.48;100.00;61774.03;4995897;28;20054;-71
2021/09/30 05:22:32;;;;;;;6.00;2.40;;;;;;;-139.48;100.00;61774.03;4996119;28;20061;-71
2021/09/30 05:25:15;;;;;;;5.68;2.33;;;;;;;-139.48;100.00;61774.03;4995700;28;20088;-71
2021/09/30 05:28:02;;;;;;;6.60;2.00;;;;;;;-139.48;100.00;61774.03;4982024;28;20080;-71
2021/09/30 05:30:47;;;;;;;7.90;2.72;;;;;;;-139.48;100.00;61774.03;4982260;28;20121;-70
2021/09/30 05:33:31;;;;;;;3.45;2.25;;;;;;;-139.48;100.00;61774.03;4995620;28;20049;-71
2021/09/30 05:36:15;;;;;;;6.50;2.20;;;;;;;-139.48;100.00;61774.03;4995549;28;20092;-71
2021/09/30 05:38:59;;;;;;;2.35;1.67;;;;;;;-139.48;100.00;61774.03;4996510;28;20053;-71
2021/09/30 05:41:44;;;;;;;2.75;2.00;;;;;;;-139.48;100.00;61774.03;4996784;28;20108;-70
2021/09/30 05:44:31;;;;;;;5.88;2.13;;;;;;;-139.48;100.00;61774.03;4996610;28;20124;-71
2021/09/30 05:47:15;;;;;;;5.28;2.28;;;;;;;-139.48;100.00;61774.03;4996272;28;20089;-71
2021/09/30 05:49:59;;;;;;;6.38;2.42;;;;;;;-139.48;100.00;61774.03;4981925;28;20101;-69
2021/09/30 05:52:44;;;;;;;8.52;2.50;;;;;;;-139.48;100.00;61774.03;4995260;28;20143;-71
2021/09/30 05:55:28;;;;;;;5.50;2.17;;;;;;;-139.48;100.00;61774.03;4995510;28;20140;-71
2021/09/30 05:58:13;;;;;;;7.80;2.53;;;;;;;-139.48;100.00;61774.03;4994055;28;20462;-71
2021/09/30 06:01:30;;;;;;;6.15;2.33;;;;;;;-139.48;100.00;61774.03;4996315;28;20069;-71
2021/09/30 06:10:24;;;;;;;4.88;2.13;;;;;;;-139.48;100.00;61774.03;4996149;28;20419;-70
2021/09/30 06:13:14;;;;;;;6.18;1.92;;;;;;;-139.48;100.00;61774.03;4994978;28;20599;-71
2021/09/30 06:16:03;;;;;;;5.70;2.60;;;;;;;-139.48;100.00;61774.03;4995147;28;20574;-71
2021/09/30 06:18:47;;;;;;;3.55;2.13;;;;;;;-139.48;100.00;61774.03;4995279;28;20057;-72
2021/09/30 06:21:32;;;;;;;7.25;2.50;;;;;;;-139.48;100.00;61774.03;4995750;28;20097;-71
2021/09/30 06:24:16;;;;;;;3.53;2.50;;;;;;;-139.48;100.00;61774.03;4981501;28;20192;-71
2021/09/30 06:27:02;;;;;;;4.93;2.20;;;;;;;-139.48;100.00;61774.03;4994739;28;20052;-72
2021/09/30 06:29:46;;;;;;;3.90;2.20;;;;;;;-139.48;100.00;61774.03;4981187;28;20057;-72
2021/09/30 06:32:30;;;;;;;6.07;2.25;;;;;;;-139.48;100.00;61774.03;4995824;28;20089;-72
2021/09/30 06:35:14;;;;;;;5.18;2.55;;;;;;;-139.48;100.00;61774.03;4980663;28;20053;-72
2021/09/30 06:37:58;;;;;;;5.25;2.20;;;;;;;-139.48;100.00;61774.03;4994474;28;20045;-71
2021/09/30 06:40:41;;;;;;;3.70;2.20;;;;;;;-139.48;100.00;61774.03;4994840;28;20049;-71
2021/09/30 06:43:25;;;;;;;6.07;2.47;;;;;;;-139.48;100.00;61774.03;4995373;28;20045;-72
2021/09/30 06:46:09;;;;;;;2.67;1.90;;;;;;;-139.48;100.00;61774.03;4995206;28;20414;-72
2021/09/30 06:48:53;;;;;;;4.05;2.47;;;;;;;-139.48;100.00;61774.03;4995417;28;20105;-72
2021/09/30 06:51:37;;;;;;;6.38;2.03;;;;;;;-139.48;100.00;61774.03;4994171;28;20053;-71
2021/09/30 06:54:21;;;;;;;6.10;2.00;;;;;;;-139.48;100.00;61774.03;4980839;28;20100;-71
2021/09/30 06:57:05;;;;;;;3.90;2.17;;;;;;;-139.48;100.00;61774.03;4980632;28;20419;-71
2021/09/30 06:59:49;;;;;;;4.55;2.00;;;;;;;-139.48;100.00;61774.03;4994281;28;20410;-71
2021/09/30 07:02:36;;;;;;;4.68;2.20;;;;;;;-139.48;100.00;61774.03;4993976;28;20049;-71
2021/09/30 07:05:20;;;;;;;5.50;2.00;;;;;;;-139.48;100.00;61774.03;4980009;28;20053;-71
2021/09/30 07:08:06;;;;;;;7.22;2.38;;;;;;;-139.48;100.00;61774.03;4995287;28;20056;-71
2021/09/30 07:10:50;;;;;;;3.70;2.00;;;;;;;-139.48;100.00;61774.03;4993838;28;20135;-71
2021/09/30 07:13:34;;;;;;;6.75;2.50;;;;;;;-139.48;100.00;61774.03;4995215;28;20404;-71
2021/09/30 07:16:18;;;;;;;3.58;2.05;;;;;;;-139.48;100.00;61774.03;4993736;28;20462;-71
2021/09/30 07:19:02;;;;;;;4.88;1.92;;;;;;;-139.48;100.00;61774.03;4993961;28;20045;-71
2021/09/30 07:21:46;;;;;;;8.20;2.20;;;;;;;-139.48;100.00;61774.03;4993629;28;20112;-71
2021/09/30 07:24:31;;;;;;;4.95;2.38;;;;;;;-139.48;100.00;61774.03;4993238;28;20100;-72
2021/09/30 07:27:15;;;;;;;6.50;2.03;;;;;;;-139.48;100.00;61774.03;4993683;28;20396;-71
2021/09/30 07:29:58;;;;;;;6.55;2.00;;;;;;;-139.48;100.00;61774.03;4994926;28;20116;-71
2021/09/30 07:32:42;;;;;;;4.10;2.45;;;;;;;-139.48;100.00;61774.03;4993360;28;20419;-71
2021/09/30 07:35:27;;;;;;;4.93;2.13;;;;;;;-139.48;100.00;61774.03;4994422;28;20057;-71
2021/09/30 07:38:10;;;;;;;;;;;;;;;-139.48;100.00;61774.03;4993774;28;20061;-71
2021/09/30 07:40:55;;;;;;;6.57;2.10;;;;;;;-139.48;100.00;61774.03;4993713;28;19980;-71
2021/09/30 07:43:39;;;;;;;6.88;2.55;;;;;;;-139.48;100.00;61774.03;4993277;28;20112;-71
2021/09/30 07:46:22;;;;;;;3.15;1.80;;;;;;;-139.48;100.00;61774.03;4993244;28;20105;-71
2021/09/30 07:49:07;;;;;;;2.08;1.75;;;;;;;-139.48;100.00;61774.03;4993520;28;20419;-70
2021/09/30 07:51:51;;;;;;;8.82;2.15;;;;;;;-139.48;100.00;61774.03;4993345;28;20541;-71
2021/09/30 07:54:35;;;;;;;3.92;1.77;;;;;;;-139.48;100.00;61774.03;4993251;28;20472;-71
2021/09/30 07:57:19;;;;;;;2.05;1.40;;;;;;;-139.48;100.00;61774.03;4979854;28;20093;-71
2021/09/30 08:00:05;;;;;;;6.55;1.55;;;;;;;-139.48;100.00;61774.03;4994205;28;20052;-71
2021/09/30 08:02:49;;;;;;;3.35;1.90;;;;;;;-139.48;100.00;61774.03;4992890;28;20581;-71
2021/09/30 08:05:35;;;;;;;5.10;1.70;;;;;;;-139.48;100.00;61774.03;4992990;28;20071;-71
2021/09/30 08:08:19;;;;;;;3.13;1.73;;;;;;;-139.48;100.00;61774.03;4993890;28;20053;-71
2021/09/30 08:11:03;;;;;;;6.10;1.58;;;;;;;-139.48;100.00;61774.03;4992929;28;20093;-71
2021/09/30 08:13:49;;;;;;;3.80;1.38;;;;;;;-139.48;100.00;61774.03;4993096;28;20118;-71
2021/09/30 08:16:34;;;;;;;3.72;1.58;;;;;;;-139.48;100.00;61774.03;4992759;28;20049;-71
2021/09/30 08:19:18;;;;;;;5.47;2.08;;;;;;;-139.48;100.00;61774.03;4993122;28;20513;-71
2021/09/30 08:22:02;;;;;;;2.10;1.40;;;;;;;-139.48;100.00;61774.03;4993455;28;20053;-71
2021/09/30 08:24:46;;;;;;;5.03;1.58;;;;;;;-139.48;100.00;61774.03;4993728;28;20136;-72
2021/09/30 08:27:30;;;;;;;3.28;1.60;;;;;;;-139.48;100.00;61774.03;4993727;28;20145;-72
2021/09/30 08:30:14;;;;;;;3.70;1.35;;;;;;;-139.48;100.00;61774.03;4992947;28;20108;-72
2021/09/30 08:32:58;;;;;;;3.50;1.70;;;;;;;-139.48;100.00;61774.03;4979199;28;20049;-71
2021/09/30 08:35:42;;;;;;;2.95;1.40;;;;;;;-139.48;100.00;61774.03;4978910;28;20113;-71
2021/09/30 08:38:26;;;;;;;6.75;1.65;;;;;;;-139.48;100.00;61774.03;4993111;28;20131;-72
2021/09/30 08:41:11;;;;;;;2.55;1.50;;;;;;;-139.48;100.00;61774.03;4993115;28;20057;-71
2021/09/30 08:43:57;;;;;;;6.38;1.80;;;;;;;-139.48;100.00;61774.03;4993587;28;20088;-71
2021/09/30 08:46:41;;;;;;;3.33;1.40;;;;;;;-139.48;100.00;61774.03;4993447;28;20416;-71
2021/09/30 08:49:25;;;;;;;6.05;2.50;;;;;;;-139.48;100.00;61774.03;4992834;28;20431;-69
2021/09/30 08:52:09;;;;;;;2.45;1.50;;;;;;;-139.48;100.00;61774.03;4992797;28;20418;-71
2021/09/30 08:54:53;;;;;;;4.13;1.30;;;;;;;-139.48;100.00;61774.03;4992630;28;20045;-71
2021/09/30 08:57:36;;;;;;;5.90;1.63;;;;;;;-139.48;100.00;61774.03;4978689;28;20053;-71
2021/09/30 09:00:22;;;;;;;5.00;1.30;;;;;;;-139.48;100.00;61774.03;4992463;28;20049;-71
2021/09/30 09:03:06;;;;;;;4.57;1.20;;;;;;;-139.48;100.00;61774.03;4979459;28;20096;-71
2021/09/30 09:05:50;;;;;;;4.65;1.25;;;;;;;-139.48;100.00;61774.03;4992178;28;20056;-71
2021/09/30 09:08:35;;;;;;;3.10;1.25;;;;;;;-139.48;100.00;61774.03;4992415;28;20058;-72
2021/09/30 09:11:21;;;;;;;2.95;1.40;;;;;;;-139.48;100.00;61774.03;4992572;28;20052;-69
2021/09/30 09:14:05;;;;;;;1.60;1.00;;;;;;;-139.48;100.00;61774.03;4979455;28;20546;-70
2021/09/30 09:17:01;;;;;;;4.13;1.17;;;;;;;-139.48;100.00;61774.03;4978505;28;20045;-71
2021/09/30 09:19:50;;;;;;;3.65;1.17;;;;;;;-139.48;100.00;61774.03;4992482;28;20157;-71
2021/09/30 09:22:36;;;;;;;4.20;1.23;;;;;;;-139.48;100.00;61774.03;4992414;28;20055;-71
2021/09/30 09:25:22;;;;;;;4.80;1.25;;;;;;;-139.48;100.00;61774.03;4991948;28;20105;-70
2021/09/30 09:28:06;;;;;;;4.00;1.50;;;;;;;-139.48;100.00;61774.03;4993423;28;20133;-71
2021/09/30 09:30:51;;;;;;;3.60;1.63;;;;;;;-139.48;100.00;61774.03;4992348;28;20100;-71
2021/09/30 09:33:37;;;;;;;3.53;1.35;;;;;;;-139.48;100.00;61774.03;4995652;28;20079;-70
2021/09/30 09:36:25;;;;;;;6.05;1.23;;;;;;;-139.48;100.00;61774.03;4995798;28;20046;-71
2021/09/30 09:39:09;;;;;;;4.13;1.13;;;;;;;-139.48;100.00;61774.03;4995499;28;20082;-71
2021/09/30 09:42:14;;;;;;;3.45;1.25;;;;;;;-139.48;100.00;61774.03;4981944;28;20044;-70
2021/09/30 09:45:07;;;;;;;9.07;1.58;;;;;;;-139.48;100.00;61774.03;4995325;28;20085;-71
2021/09/30 09:47:51;;;;;;;5.72;1.40;;;;;;;-139.48;100.00;61774.03;4995575;28;20041;-70
2021/09/30 09:50:57;;;;;;;;;;;;;;;-139.48;100.00;61774.03;4982195;28;20077;-71
2021/09/30 09:53:41;;;;;;;2.80;1.02;;;;;;;-139.48;100.00;61774.03;4996181;28;20007;-71
2021/09/30 09:56:25;;;;;;;4.40;1.17;;;;;;;-139.48;100.00;61774.03;4995160;28;20538;-71
2021/09/30 09:59:09;;;;;;;3.67;1.40;;;;;;;-139.48;100.00;61774.03;4995503;28;20392;-70
2021/09/30 10:01:53;;;;;;;;;;;;;;;-139.48;100.00;61774.03;4995555;28;20566;-71
2021/09/30 10:04:41;;;;;;;2.90;1.10;;;;;;;-139.48;100.00;61774.03;4995027;28;19964;-72
2021/09/30 10:07:25;;;;;;;5.57;1.50;;;;;;;-139.48;100.00;61774.03;4981828;28;20470;-71
2021/09/30 10:10:10;;;;;;;3.85;1.00;;;;;;;-139.48;100.00;61774.03;4994892;28;20057;-70
2021/09/30 10:12:55;;;;;;;1.83;1.00;;;;;;;-139.48;100.00;61774.03;4994899;28;20045;-70
2021/09/30 10:15:40;;;;;;;2.83;0.90;;;;;;;-139.48;100.00;61774.03;4994884;28;20049;-71
2021/09/30 10:18:26;;;;;;;2.42;1.20;;;;;;;-139.48;100.00;61774.03;4994867;28;20049;-71
2021/09/30 10:21:09;;;;;;;6.03;1.42;;;;;;;-139.48;100.00;61774.03;4981273;28;20054;-70
2021/09/30 10:23:59;;;;;;;2.78;1.15;;;;;;;-139.48;100.00;61774.03;4994692;28;20049;-71
2021/09/30 10:26:55;;;;;;;5.13;1.25;;;;;;;-139.48;100.00;61774.03;5008141;23;20574;-71
2021/09/30 10:29:47;;;;;;;4.78;1.40;;;;;;;-139.48;100.00;61774.03;4975513;28;20411;-71
2021/09/30 10:32:49;;;;;;;1.77;1.15;;;;;;;-139.48;100.00;61774.03;4975410;28;20053;-71
2021/09/30 10:35:35;;;;;;;3.13;1.13;;;;;;;-139.48;100.00;61774.03;4976032;28;20151;-70
2021/09/30 10:38:31;;;;;;;2.22;0.90;;;;;;;-139.48;100.00;61774.03;4956993;29;20061;-71
2021/09/30 10:41:15;;;;;;;4.00;1.42;;;;;;;-139.48;100.00;61774.03;4955940;29;20051;-71
2021/09/30 10:44:13;;;;;;;3.47;1.38;;;;;;;-139.48;100.00;61774.03;4941748;29;20066;-71
2021/09/30 10:46:58;;;;;;;4.10;1.00;;;;;;;-139.48;100.00;61774.03;4955445;28;20081;-70
2021/09/30 10:49:56;;;;;;;2.67;1.00;;;;;;;-139.48;100.00;61774.03;4956806;29;20058;-70
2021/09/30 10:52:51;;;;;;;3.85;1.02;;;;;;;-139.48;100.00;61774.03;4955748;29;20118;-70
2021/09/30 10:55:35;;;;;;;3.42;1.27;;;;;;;-139.48;100.00;61774.03;4955918;29;20085;-71
2021/09/30 10:58:22;;;;;;;2.67;0.90;;;;;;;-139.48;100.00;61774.03;4955560;29;20129;-70
2021/09/30 11:01:13;;;;;;;0.88;0.82;;;;;;;-139.48;100.00;61774.03;4955577;29;20070;-70
2021/09/30 11:04:03;;;;;;;4.00;0.95;;;;;;;-139.48;100.00;61774.03;4955393;29;20564;-70
2021/09/30 11:07:05;;;;;;;3.08;1.25;;;;;;;-139.48;100.00;61774.03;4956390;28;20428;-69
2021/09/30 11:10:15;;;;;;;1.88;1.10;;;;;;;-139.48;100.00;61774.03;4955058;29;20071;-70
2021/09/30 11:13:19;;;;;;;3.60;1.00;;;;;;;-139.48;100.00;61774.03;4942124;29;20054;-69
2021/09/30 11:16:08;;;;;;;2.20;0.90;;;;;;;-139.48;100.00;61774.03;4941315;28;20499;-71
2021/09/30 11:18:57;;;;;;;2.25;0.90;;;;;;;-139.48;100.00;61774.03;4955226;29;20050;-71
2021/09/30 11:21:41;;;;;;;3.08;0.93;;;;;;;-139.48;100.00;61774.03;4954899;29;20057;-71
2021/09/30 11:24:31;;;;;;;3.05;0.80;;;;;;;-139.48;100.00;61774.03;4954825;29;20114;-70
2021/09/30 11:27:16;;;;;;;3.90;0.90;;;;;;;-139.48;100.00;61774.03;4940874;29;20439;-71
2021/09/30 11:30:23;;;;;;;2.35;1.05;;;;;;;-139.48;100.00;61774.03;4955143;29;20134;-71
2021/09/30 11:33:21;;;;;;;5.30;1.17;;;;;;;-139.48;100.00;61774.03;4954943;29;20065;-71
2021/09/30 11:36:05;;;;;;;4.53;1.00;;;;;;;-139.48;100.00;61774.03;4955498;28;20170;-71
2021/09/30 11:38:49;;;;;;;5.43;1.60;;;;;;;-139.48;100.00;61774.03;4954884;29;20417;-71
2021/09/30 11:41:35;;;;;;;2.63;1.25;;;;;;;-139.48;100.00;61774.03;4954773;29;20519;-71
2021/09/30 11:44:20;;;;;;;2.75;1.05;;;;;;;-139.48;100.00;61774.03;4955779;29;20050;-71
2021/09/30 11:47:04;;;;;;;1.73;0.95;;;;;;;-139.48;100.00;61774.03;4954616;29;20054;-72
2021/09/30 11:49:48;;;;;;;;;;;;;;;-139.48;100.00;61774.03;4955052;29;20078;-71
2021/09/30 11:52:32;;;;;;;4.32;1.08;;;;;;;-139.48;100.00;61774.03;4955576;29;19926;-71
2021/09/30 11:55:17;;;;;;;3.10;0.95;;;;;;;-139.48;100.00;61774.03;4953810;28;20050;-71
2021/09/30 11:58:04;;;;;;;1.60;1.10;;;;;;;-139.48;100.00;61774.03;4954271;29;20066;-73
2021/09/30 12:00:48;;;;;;;2.30;1.00;;;;;;;-139.48;100.00;61774.03;4954587;29;20054;-71
2021/09/30 12:03:39;;;;;;;;;;;;;;;-139.48;100.00;61774.03;4955228;29;20560;-71
2021/09/30 12:06:46;;;;;;;2.15;0.90;;;;;;;-139.48;100.00;61774.03;4954061;28;20299;-71
2021/09/30 12:09:34;;;;;;;5.13;1.02;;;;;;;-139.48;100.00;61774.03;4954200;29;20046;-71
2021/09/30 12:12:26;;;;;;;2.40;0.93;;;;;;;-139.48;100.00;61774.03;4954203;29;20515;-71
2021/09/30 12:15:10;;;;;;;4.68;1.10;;;;;;;-139.48;100.00;61774.03;4954550;29;20050;-71
2021/09/30 12:17:55;;;;;;;3.25;1.10;;;;;;;-139.48;100.00;61774.03;4954001;29;20050;-71
2021/09/30 12:20:46;;;;;;;4.35;1.17;;;;;;;-139.48;100.00;61774.03;4955243;29;20145;-71
2021/09/30 12:23:30;;;;;;;4.03;1.10;;;;;;;-139.48;100.00;61774.03;4954245;29;20520;-71
2021/09/30 12:26:14;;;;;;;5.20;0.90;;;;;;;-139.48;100.00;61774.03;4954054;28;20051;-71
2021/09/30 12:28:59;;;;;;;2.60;1.00;;;;;;;-139.48;100.00;61774.03;4940707;29;20077;-71
2021/09/30 12:31:43;;;;;;;2.28;0.90;;;;;;;-139.48;100.00;61774.03;4954187;29;20468;-71
2021/09/30 12:34:27;;;;;;;4.43;0.95;;;;;;;-139.48;100.00;61774.03;4954894;29;20075;-70
2021/09/30 12:37:11;;;;;;;3.55;0.90;;;;;;;-139.48;100.00;61774.03;4954145;29;20171;-71
2021/09/30 12:40:13;;;;;;;3.65;0.90;;;;;;;-139.48;100.00;61774.03;4940618;29;20050;-71
2021/09/30 12:43:09;;;;;;;6.50;0.93;;;;;;;-139.48;100.00;61774.03;4954065;29;20167;-72
2021/09/30 12:45:56;;;;;;;3.17;1.00;;;;;;;-139.48;100.00;61774.03;4954928;28;20106;-72
2021/09/30 12:48:40;;;;;;;4.60;1.00;;;;;;;-139.48;100.00;61774.03;4954306;29;20082;-71
2021/09/30 12:51:25;;;;;;;2.28;1.00;;;;;;;-139.48;100.00;61774.03;4953929;29;20507;-69
2021/09/30 12:54:09;;;;;;;3.38;1.00;;;;;;;-139.48;100.00;61774.03;4953962;29;20090;-71
2021/09/30 12:56:53;;;;;;;2.40;1.00;;;;;;;-139.48;100.00;61774.03;4940249;29;20050;-71
2021/09/30 12:59:38;;;;;;;3.28;1.10;;;;;;;-139.48;100.00;61774.03;4953894;29;20097;-71
2021/09/30 13:02:21;;;;;;;2.63;0.98;;;;;;;-139.48;100.00;61774.03;4940505;29;20058;-71
2021/09/30 13:05:07;;;;;;;3.58;1.23;;;;;;;-139.48;100.00;61774.03;4954930;29;20106;-71
2021/09/30 13:07:55;;;;;;;3.47;1.00;;;;;;;-139.48;100.00;61774.03;4942524;29;20508;-71
2021/09/30 13:10:39;;;;;;;3.53;0.98;;;;;;;-139.48;100.00;61774.03;4957377;29;20054;-71
2021/09/30 13:13:26;;;;;;;5.40;1.15;;;;;;;-139.48;100.00;61774.03;4957278;29;20058;-70
2021/09/30 13:16:23;;;;;;;2.53;0.98;;;;;;;-139.48;100.00;61774.03;4957449;28;20417;-71
2021/09/30 13:19:07;;;;;;;3.72;0.93;;;;;;;-139.48;100.00;61774.03;4957362;29;20051;-70
2021/09/30 13:21:56;;;;;;;2.55;0.75;;;;;;;-139.48;100.00;61774.03;4957655;29;20543;-70
2021/09/30 13:24:41;;;;;;;2.50;0.98;;;;;;;-139.48;100.00;61774.03;4957626;29;20055;-71
2021/09/30 13:27:29;;;;;;;2.08;1.05;;;;;;;-139.48;100.00;61774.03;4956735;29;20130;-69
2021/09/30 13:30:16;;;;;;;1.52;0.93;;;;;;;-139.48;100.00;61774.03;4957282;29;20058;-71
2021/09/30 13:33:02;;;;;;;1.13;0.93;;;;;;;-139.48;100.00;61774.03;4958236;29;20071;-71
2021/09/30 13:35:46;;;;;;;2.03;0.95;;;;;;;-139.48;100.00;61774.03;4957032;28;20125;-71
2021/09/30 13:38:29;;;;;;;1.58;1.02;;;;;;;-139.48;100.00;61774.03;4957751;29;20069;-68
2021/09/30 13:41:13;;;;;;;;;;;;;;;-139.48;100.00;61774.03;4958377;29;20058;-71
2021/09/30 13:43:57;;;;;;;1.90;0.90;;;;;;;-139.48;100.00;61774.03;4957261;29;20017;-70
2021/09/30 13:46:41;;;;;;;3.65;0.95;;;;;;;-139.48;100.00;61774.03;4957569;28;20122;-70
2021/09/30 13:49:25;;;;;;;;;;;;;;;-139.48;100.00;61774.03;4956988;29;20592;-71
2021/09/30 13:52:09;;;;;;;3.03;0.93;;;;;;;-139.48;100.00;61774.03;4956777;29;20000;-71
2021/09/30 13:54:53;;;;;;;4.43;1.10;;;;;;;-139.48;100.00;61774.03;4943476;29;20099;-71
2021/09/30 13:57:37;;;;;;;2.33;0.90;;;;;;;-139.48;100.00;61774.03;4957444;28;20062;-71
2021/09/30 14:00:21;;;;;;;1.98;1.15;;;;;;;-139.48;100.00;61774.03;4957659;29;20106;-70
2021/09/30 14:03:06;;;;;;;2.40;1.00;;;;;;;-139.48;100.00;61774.03;4957325;29;20055;-71
2021/09/30 14:05:51;;;;;;;4.95;1.48;;;;;;;-139.48;100.00;61774.03;4957323;28;20497;-71
2021/09/30 14:08:35;;;;;;;2.97;1.13;;;;;;;-139.48;100.00;61774.03;4956461;29;20134;-71
2021/09/30 14:11:22;;;;;;;3.63;1.20;;;;;;;-139.48;100.00;61774.03;4956293;29;20058;-70
2021/09/30 14:14:06;;;;;;;4.53;1.20;;;;;;;-139.48;100.00;61774.03;4956059;29;20054;-71
2021/09/30 14:16:50;;;;;;;3.10;0.90;;;;;;;-139.48;100.00;61774.03;4956279;29;20052;-70
2021/09/30 14:19:34;;;;;;;2.20;0.98;;;;;;;-139.48;100.00;61774.03;4955240;28;20045;-71
2021/09/30 14:22:18;;;;;;;4.15;1.17;;;;;;;-139.48;100.00;61774.03;4942445;29;20074;-71
2021/09/30 14:25:04;;;;;;;4.93;1.00;;;;;;;-139.48;100.00;61774.03;4955926;29;20094;-70
2021/09/30 14:27:47;;;;;;;3.20;0.93;;;;;;;-139.48;100.00;61774.03;4942015;29;20102;-71
2021/09/30 14:30:32;;;;;;;3.08;1.10;;;;;;;-139.48;100.00;61774.03;4955824;29;20058;-70
2021/09/30 14:33:15;;;;;;;;;;;;;;;-139.48;100.00;61774.03;4957142;29;20540;-68
2021/09/30 14:36:00;;;;;;;2.95;0.95;;;;;;;-139.48;100.00;61774.03;4955969;28;19961;-71
2021/09/30 14:38:44;;;;;;;1.85;0.90;;;;;;;-139.48;100.00;61774.03;4955911;29;20050;-72
2021/09/30 14:41:28;;;;;;;3.22;1.00;;;;;;;-139.48;100.00;61774.03;4942093;29;20054;-70
2021/09/30 14:44:12;;;;;;;;;;;;;;;-139.48;100.00;61774.03;4955948;29;20567;-70
2021/09/30 14:46:56;;;;;;;2.65;1.27;;;;;;;-139.48;100.00;61774.03;4955472;28;19925;-70
2021/09/30 14:49:40;;;;;;;1.42;1.00;;;;;;;-139.48;100.00;61774.03;4956042;29;20050;-71
2021/09/30 14:52:24;;;;;;;;;;;;;;;-139.48;100.00;61774.03;4956124;29;20050;-71
2021/09/30 14:55:09;;;;;;;2.70;1.10;;;;;;;-139.48;100.00;61774.03;4955427;29;20283;-71
2021/09/30 14:57:53;;;;;;;2.60;1.02;;;;;;;-139.48;100.00;61774.03;4955527;29;20074;-71
2021/09/30 15:00:37;;;;;;;1.85;0.82;;;;;;;-139.48;100.00;61774.03;4956828;29;20098;-71
2021/09/30 15:03:21;;;;;;;1.55;0.60;;;;;;;-139.48;100.00;61774.03;4956383;29;20049;-70
2021/09/30 15:06:09;;;;;;;;;;;;;;;-139.48;100.00;61774.03;4942189;28;20420;-71
2021/09/30 15:08:54;;;;;;;1.95;0.85;;;;;;;-139.48;100.00;61774.03;4955616;29;19922;-71
2021/09/30 15:11:41;;;;;;;3.80;0.77;;;;;;;-139.48;100.00;61774.03;4955449;29;20134;-71
2021/09/30 15:14:27;;;;;;;3.08;0.90;;;;;;;-139.48;100.00;61774.03;4941787;29;20098;-71
2021/09/30 15:17:22;;;;;;;2.35;0.80;;;;;;;-139.48;100.00;61774.03;4955071;29;20113;-71
2021/09/30 15:22:50;;;;;;;2.80;1.00;;;;;;;-139.48;100.00;61774.03;4955910;29;20515;-71
2021/09/30 15:25:37;;;;;;;;;;;;;;;-139.48;100.00;61774.03;4956288;29;20054;-71
2021/09/30 15:28:21;;;;;;;3.95;0.95;;;;;;;-139.48;100.00;61774.03;4955321;29;19928;-71
2021/09/30 15:31:05;;;;;;;2.40;0.90;;;;;;;-139.48;100.00;61774.03;4941277;29;20053;-71